To NAV CANADA Home Page Login to a new session Search on AWWS site Feedback and Comments Disclaimer Vers la page française équivalente Tips FAQ What's new on the site To the Forecasts and Observations / NOTAM section To "File a Flight Plan" website Publications and other links Update of the User's profile FIC Telephone Numbers My Weather Data Folder Route Weather Data Regional Weather Data Local Weather Data To the Forecasts and Observations / NOTAM section
Request Generated 04/01/2015 at 04:30:21 UTC . Weather information available at that time is displayed.

METAR/TAF

ST. ANTHONY/NL    (show WxCam)

SPECI CYAY 010401Z AUTO 09008KT 9SM -SN BKN007 OVC048 M03/M04 A2948
RMK SLP986=
METAR CYAY 010400Z AUTO 09008KT 9SM -SN SCT007 BKN048 OVC070 M03/M04
A2948 RMK SLP986=
SPECI CYAY 010350Z AUTO 08010KT 9SM -SN BKN050 OVC070 M03/M04 A2948
RMK SLP986=
SPECI CYAY 010335Z AUTO 06009KT 9SM FEW008 OVC070 M03/M04 A2948 RMK
SLP986=
SPECI CYAY 010322Z AUTO 06007KT 9SM -SN FEW008 OVC065 M03/M04 A2949
RMK SLP988=
METAR CYAY 010300Z AUTO 10002KT 9SM OVC060 M03/M04 A2950 RMK SLP992=
METAR CYAY 010200Z AUTO 10007KT 9SM BKN070 OVC085 M03/M04 A2952 RMK
SLP997=

TAF AMD CYAY 010419Z 0104/0114 09008KT 6SM -SN SCT007 OVC040 TEMPO
0104/0113 2SM -SN OVC007 PROB30 0104/0113 1SM -SN
FM011300 26012KT P6SM BKN025 TEMPO 0113/0114 BKN015
RMK FCST BASED ON AUTO OBS. NXT FCST BY 010800Z=
Your time UTC time
Weather data provided by Environment Canada and NAV CANADA